createdAt,value
2018-05-11T00:00:02.540Z,101660.28
2018-05-11T00:01:06.717Z,101661.17
2018-05-11T00:02:10.885Z,101661.56
2018-05-11T00:03:15.861Z,101655.20
2018-05-11T00:04:20.038Z,101657.33
2018-05-11T00:05:24.204Z,101656.95
2018-05-11T00:06:28.372Z,101653.94
2018-05-11T00:07:32.559Z,101653.46
2018-05-11T00:08:37.516Z,101656.89
2018-05-11T00:09:41.685Z,101654.75
2018-05-11T00:10:46.630Z,101653.05
2018-05-11T00:11:50.824Z,101653.94
2018-05-11T00:12:55.753Z,101658.61
2018-05-11T00:14:00.690Z,101654.33
2018-05-11T00:15:05.647Z,101659.55
2018-05-11T00:16:09.820Z,101654.88
2018-05-11T00:17:15.167Z,101656.59
2018-05-11T00:18:20.097Z,101663.00
2018-05-11T00:19:24.271Z,101662.14
2018-05-11T00:20:28.445Z,101659.66
2018-05-11T00:21:32.631Z,101660.14
2018-05-11T00:22:36.860Z,101659.31
2018-05-11T00:23:41.021Z,101661.88
2018-05-11T00:24:45.185Z,101660.64
2018-05-11T00:25:49.370Z,101659.86
2018-05-11T00:26:53.536Z,101664.97
2018-05-11T00:27:57.875Z,101664.14
2018-05-11T00:29:02.809Z,101663.31
2018-05-11T00:30:07.743Z,101670.98
2018-05-11T00:31:11.912Z,101667.10
2018-05-11T00:32:16.096Z,101669.63
2018-05-11T00:33:20.402Z,101672.63
2018-05-11T00:34:24.586Z,101669.65
2018-05-11T00:35:29.526Z,101664.55
2018-05-11T00:36:33.689Z,101666.36
2018-05-11T00:37:37.870Z,101666.82
2018-05-11T00:38:42.165Z,101664.31
2018-05-11T00:39:46.329Z,101667.73
2018-05-11T00:40:50.507Z,101662.21
2018-05-11T00:41:54.678Z,101669.93
2018-05-11T00:42:58.847Z,101669.53
2018-05-11T00:44:03.150Z,101671.27
2018-05-11T00:45:07.334Z,101669.99
2018-05-11T00:46:11.510Z,101674.27
2018-05-11T00:47:16.445Z,101668.72
2018-05-11T00:48:21.389Z,101670.89
2018-05-11T00:49:25.616Z,101667.86
2018-05-11T00:50:29.777Z,101667.82
2018-05-11T00:51:33.974Z,101675.58
2018-05-11T00:52:38.140Z,101668.73
2018-05-11T00:53:42.333Z,101672.55
2018-05-11T00:54:46.501Z,101673.83
2018-05-11T00:55:51.476Z,101673.40
2018-05-11T00:56:55.644Z,101673.39
2018-05-11T00:57:59.832Z,101671.30
2018-05-11T00:59:04.010Z,101672.62
2018-05-11T01:00:08.192Z,101680.31
2018-05-11T01:01:12.381Z,101675.58
2018-05-11T01:02:16.550Z,101674.73
2018-05-11T01:03:20.718Z,101678.15
2018-05-11T01:04:25.665Z,101673.03
2018-05-11T01:05:29.880Z,101672.62
2018-05-11T01:06:34.114Z,101672.18
2018-05-11T01:07:38.399Z,101676.02
2018-05-11T01:08:42.569Z,101676.47
2018-05-11T01:09:46.755Z,101672.19
2018-05-11T01:10:50.933Z,101677.36
2018-05-11T01:11:55.445Z,101672.70
2018-05-11T01:12:59.613Z,101676.09
2018-05-11T01:14:03.868Z,101676.48
2018-05-11T01:15:08.034Z,101679.48
2018-05-11T01:16:12.200Z,101674.81
2018-05-11T01:17:16.398Z,101682.50
2018-05-11T01:18:20.593Z,101683.78
2018-05-11T01:19:25.568Z,101679.05
2018-05-11T01:20:29.736Z,101685.48
2018-05-11T01:21:34.669Z,101684.20
2018-05-11T01:22:39.613Z,101682.05
2018-05-11T01:23:44.230Z,101685.06
2018-05-11T01:24:48.405Z,101684.22
2018-05-11T01:25:52.573Z,101680.39
2018-05-11T01:26:56.765Z,101682.13
2018-05-11T01:28:00.954Z,101684.69
2018-05-11T01:29:05.987Z,101689.41
2018-05-11T01:30:10.175Z,101688.95
2018-05-11T01:31:14.346Z,101688.95
2018-05-11T01:32:18.512Z,101687.69
2018-05-11T01:33:23.456Z,101688.52
2018-05-11T01:34:27.762Z,101685.52
2018-05-11T01:35:31.933Z,101684.63
2018-05-11T01:36:36.113Z,101681.66
2018-05-11T01:37:40.286Z,101681.21
2018-05-11T01:38:44.453Z,101681.20
2018-05-11T01:39:48.788Z,101685.45
2018-05-11T01:40:52.885Z,101685.04
2018-05-11T01:41:57.058Z,101684.59
2018-05-11T01:43:01.232Z,101687.59
2018-05-11T01:44:06.178Z,101686.70
2018-05-11T01:45:10.406Z,101686.28
2018-05-11T01:46:14.584Z,101685.88
2018-05-11T01:47:19.520Z,101689.27
2018-05-11T01:48:23.684Z,101681.14
2018-05-11T01:49:27.871Z,101684.59
2018-05-11T01:50:32.111Z,101679.87
2018-05-11T01:51:37.074Z,101683.70
2018-05-11T01:52:42.022Z,101686.70
2018-05-11T01:53:46.210Z,101681.58
2018-05-11T01:54:51.157Z,101686.66
2018-05-11T01:55:55.466Z,101687.09
2018-05-11T01:56:59.628Z,101685.38
2018-05-11T01:58:03.833Z,101688.37
2018-05-11T01:59:08.017Z,101686.66
2018-05-11T02:00:12.194Z,101687.55
2018-05-11T02:01:17.148Z,101687.59
2018-05-11T02:02:21.312Z,101689.71
2018-05-11T02:03:25.550Z,101692.23
2018-05-11T02:04:29.721Z,101690.16
2018-05-11T02:05:33.893Z,101695.74
2018-05-11T02:06:38.064Z,101693.19
2018-05-11T02:07:43.003Z,101697.03
2018-05-11T02:08:47.188Z,101696.59
2018-05-11T02:09:52.641Z,101694.47
2018-05-11T02:10:57.577Z,101694.03
2018-05-11T02:12:01.769Z,101695.75
2018-05-11T02:13:06.698Z,101694.48
2018-05-11T02:14:11.648Z,101694.91
2018-05-11T02:15:15.832Z,101693.24
2018-05-11T02:16:19.993Z,101691.96
2018-05-11T02:17:24.166Z,101690.63
2018-05-11T02:18:29.171Z,101688.91
2018-05-11T02:19:33.301Z,101693.63
2018-05-11T02:20:38.277Z,101694.03
2018-05-11T02:21:42.451Z,101694.45
2018-05-11T02:22:46.673Z,101696.59
2018-05-11T02:23:50.912Z,101691.45
2018-05-11T02:24:55.865Z,101694.00
2018-05-11T02:26:00.088Z,101694.00
2018-05-11T02:27:04.733Z,101695.66
2018-05-11T02:28:08.897Z,101694.78
2018-05-11T02:29:13.073Z,101700.73
2018-05-11T02:30:17.254Z,101698.17
2018-05-11T02:31:22.201Z,101699.00
2018-05-11T02:32:26.812Z,101699.83
2018-05-11T02:33:30.988Z,101697.27
2018-05-11T02:34:35.156Z,101698.93
2018-05-11T02:35:39.338Z,101700.19
2018-05-11T02:36:43.528Z,101698.91
2018-05-11T02:37:48.486Z,101696.34
2018-05-11T02:38:52.674Z,101699.35
2018-05-11T02:39:56.888Z,101695.95
2018-05-11T02:41:01.843Z,101697.69
2018-05-11T02:42:06.035Z,101706.22
2018-05-11T02:43:10.210Z,101696.81
2018-05-11T02:44:14.386Z,101703.27
2018-05-11T02:45:18.593Z,101702.01
2018-05-11T02:46:22.765Z,101696.07
2018-05-11T02:47:27.697Z,101699.51
2018-05-11T02:48:32.629Z,101705.91
2018-05-11T02:49:36.801Z,101707.66
2018-05-11T02:50:41.181Z,101703.41
2018-05-11T02:51:45.310Z,101707.20
2018-05-11T02:52:49.492Z,101697.39
2018-05-11T02:53:53.668Z,101706.38
2018-05-11T02:54:58.602Z,101701.70
2018-05-11T02:56:03.672Z,101700.48
2018-05-11T02:57:07.833Z,101704.34
2018-05-11T02:58:12.779Z,101706.46
2018-05-11T02:59:17.706Z,101708.64
2018-05-11T03:00:22.638Z,101709.09
2018-05-11T03:01:26.826Z,101712.08
2018-05-11T03:02:31.761Z,101712.08
2018-05-11T03:03:36.699Z,101706.97
2018-05-11T03:04:40.862Z,101705.25
2018-05-11T03:05:45.029Z,101707.86
2018-05-11T03:06:49.293Z,101706.14
2018-05-11T03:07:53.470Z,101706.57
2018-05-11T03:08:57.629Z,101699.30
2018-05-11T03:10:02.571Z,101708.26
2018-05-11T03:11:07.521Z,101708.73
2018-05-11T03:12:11.703Z,101707.86
2018-05-11T03:13:16.636Z,101706.62
2018-05-11T03:14:21.602Z,101704.47
2018-05-11T03:15:25.791Z,101710.87
2018-05-11T03:16:30.101Z,101705.73
2018-05-11T03:17:34.263Z,101706.98
2018-05-11T03:18:38.509Z,101709.13
2018-05-11T03:19:42.973Z,101712.92
2018-05-11T03:20:47.908Z,101710.36
2018-05-11T03:21:52.081Z,101709.53
2018-05-11T03:22:56.261Z,101713.81
2018-05-11T03:24:01.201Z,101714.70
2018-05-11T03:25:06.268Z,101719.86
2018-05-11T03:26:10.436Z,101713.91
2018-05-11T03:27:15.378Z,101716.47
2018-05-11T03:28:19.548Z,101726.30
2018-05-11T03:29:23.712Z,101724.18
2018-05-11T03:30:27.937Z,101732.25
2018-05-11T03:31:32.106Z,101722.02
2018-05-11T03:32:37.041Z,101717.78
2018-05-11T03:33:41.975Z,101722.46
2018-05-11T03:34:46.136Z,101721.63
2018-05-11T03:35:50.340Z,101724.62
2018-05-11T03:36:54.610Z,101728.45
2018-05-11T03:37:58.781Z,101721.63
2018-05-11T03:39:02.944Z,101715.63
2018-05-11T03:40:07.116Z,101720.78
2018-05-11T03:41:12.046Z,101718.63
2018-05-11T03:42:17.006Z,101725.02
2018-05-11T03:43:21.254Z,101727.58
2018-05-11T03:44:25.426Z,101725.49
2018-05-11T03:45:29.601Z,101725.50
2018-05-11T03:46:33.783Z,101729.33
2018-05-11T03:47:37.960Z,101729.33
2018-05-11T03:48:42.318Z,101725.50
2018-05-11T03:49:46.481Z,101731.45
2018-05-11T03:50:50.653Z,101733.17
2018-05-11T03:51:54.821Z,101732.29
2018-05-11T03:52:58.990Z,101732.29
2018-05-11T03:54:04.369Z,101727.61
2018-05-11T03:55:08.542Z,101730.58
2018-05-11T03:56:13.473Z,101735.69
2018-05-11T03:57:18.411Z,101730.98
2018-05-11T03:58:22.612Z,101730.97
2018-05-11T03:59:26.814Z,101733.49
2018-05-11T04:00:31.745Z,101731.38
2018-05-11T04:01:54.480Z,101735.17
2018-05-11T04:03:17.424Z,101736.05
2018-05-11T04:04:39.628Z,101739.44
2018-05-11T04:06:04.688Z,101737.28
2018-05-11T04:07:26.625Z,101737.28
2018-05-11T04:08:43.093Z,101740.67
2018-05-11T04:09:48.036Z,101734.68
2018-05-11T04:10:54.403Z,101738.95
2018-05-11T04:11:58.568Z,101748.75
2018-05-11T04:13:02.737Z,101738.51
2018-05-11T04:14:07.316Z,101741.91
2018-05-11T04:15:12.240Z,101745.73
2018-05-11T04:16:17.176Z,101750.39
2018-05-11T04:17:22.121Z,101744.38
2018-05-11T04:18:26.289Z,101745.61
2018-05-11T04:19:30.955Z,101742.59
2018-05-11T04:20:35.131Z,101748.53
2018-05-11T04:21:39.310Z,101745.92
2018-05-11T04:22:43.477Z,101745.45
2018-05-11T04:23:48.430Z,101744.58
2018-05-11T04:24:52.674Z,101743.27
2018-05-11T04:25:56.930Z,101747.52
2018-05-11T04:27:01.049Z,101744.12
2018-05-11T04:28:05.228Z,101747.95
2018-05-11T04:29:10.174Z,101747.50
2018-05-11T04:30:15.520Z,101747.94
2018-05-11T04:31:19.705Z,101753.45
2018-05-11T04:32:24.650Z,101756.83
2018-05-11T04:33:29.582Z,101753.77
2018-05-11T04:34:33.754Z,101757.53
2018-05-11T04:35:38.749Z,101760.52
2018-05-11T04:36:42.925Z,101756.30
2018-05-11T04:37:47.870Z,101759.26
2018-05-11T04:38:52.044Z,101762.64
2018-05-11T04:39:56.984Z,101763.01
2018-05-11T04:41:02.118Z,101765.55
2018-05-11T04:42:07.055Z,101762.45
2018-05-11T04:43:11.228Z,101764.09
2018-05-11T04:44:15.406Z,101764.92
2018-05-11T04:45:19.599Z,101764.92
2018-05-11T04:46:23.801Z,101773.05
2018-05-11T04:47:28.010Z,101769.59
2018-05-11T04:48:32.322Z,101773.44
2018-05-11T04:49:36.493Z,101778.55
2018-05-11T04:50:40.665Z,101779.83
2018-05-11T04:51:44.845Z,101777.64
2018-05-11T04:52:49.077Z,101782.77
2018-05-11T04:53:53.271Z,101772.49
2018-05-11T04:54:57.461Z,101774.14
2018-05-11T04:56:02.420Z,101780.08
2018-05-11T04:57:06.601Z,101778.72
2018-05-11T04:58:11.557Z,101777.36
2018-05-11T04:59:15.753Z,101778.19
2018-05-11T05:00:20.881Z,101781.10
2018-05-11T05:01:25.825Z,101784.05
2018-05-11T05:02:30.029Z,101783.19
2018-05-11T05:03:34.200Z,101784.39
2018-05-11T05:04:38.377Z,101786.92
2018-05-11T05:05:43.077Z,101790.27
2018-05-11T05:06:47.249Z,101779.45
2018-05-11T05:07:51.617Z,101784.91
2018-05-11T05:08:55.812Z,101788.66
2018-05-11T05:10:00.019Z,101791.55
2018-05-11T05:11:04.282Z,101791.50
2018-05-11T05:12:08.470Z,101790.59
2018-05-11T05:13:12.654Z,101791.41
2018-05-11T05:14:16.834Z,101785.81
2018-05-11T05:15:21.010Z,101792.56
2018-05-11T05:16:25.201Z,101790.36
2018-05-11T05:17:29.419Z,101786.90
2018-05-11T05:18:33.613Z,101789.39
2018-05-11T05:19:37.788Z,101791.89
2018-05-11T05:20:42.733Z,101787.94
2018-05-11T05:21:46.925Z,101790.45
2018-05-11T05:22:51.553Z,101791.66
2018-05-11T05:23:56.498Z,101791.97
2018-05-11T05:25:00.673Z,101788.04
2018-05-11T05:26:05.626Z,101791.83
2018-05-11T05:27:10.583Z,101790.91
2018-05-11T05:28:14.975Z,101792.58
2018-05-11T05:29:19.146Z,101796.79
2018-05-11T05:30:23.341Z,101792.91
2018-05-11T05:31:27.521Z,101792.88
2018-05-11T05:32:31.702Z,101794.54
2018-05-11T05:33:35.936Z,101797.49
2018-05-11T05:34:40.129Z,101797.09
2018-05-11T05:35:45.070Z,101794.92
2018-05-11T05:36:49.280Z,101794.97
2018-05-11T05:37:53.448Z,101794.57
2018-05-11T05:38:57.645Z,101792.47
2018-05-11T05:40:01.830Z,101793.28
2018-05-11T05:41:06.000Z,101797.59
2018-05-11T05:42:10.936Z,101799.42
2018-05-11T05:43:15.906Z,101800.76
2018-05-11T05:44:20.086Z,101799.86
2018-05-11T05:45:24.281Z,101795.16
2018-05-11T05:46:29.239Z,101799.92
2018-05-11T05:47:33.436Z,101798.64
2018-05-11T05:48:37.605Z,101799.42
2018-05-11T05:49:41.858Z,101802.80
2018-05-11T05:50:46.062Z,101807.07
2018-05-11T05:51:50.259Z,101807.45
2018-05-11T05:52:55.202Z,101804.84
2018-05-11T05:53:59.377Z,101806.48
2018-05-11T05:55:03.562Z,101805.20
2018-05-11T05:56:08.530Z,101801.77
2018-05-11T05:57:13.498Z,101809.83
2018-05-11T05:58:17.697Z,101806.41
2018-05-11T05:59:21.864Z,101805.02
2018-05-11T06:00:26.042Z,101809.00
2018-05-11T06:01:31.125Z,101806.89
2018-05-11T06:02:36.151Z,101806.86
2018-05-11T06:03:40.690Z,101812.89
2018-05-11T06:04:44.865Z,101809.13
2018-05-11T06:05:49.037Z,101806.11
2018-05-11T06:06:53.208Z,101809.99
2018-05-11T06:07:58.141Z,101806.55
2018-05-11T06:09:03.111Z,101808.67
2018-05-11T06:10:07.497Z,101805.75
2018-05-11T06:11:11.690Z,101805.25
2018-05-11T06:12:16.626Z,101805.63
2018-05-11T06:13:20.802Z,101801.40
2018-05-11T06:14:25.032Z,101803.11
2018-05-11T06:15:30.077Z,101805.19
2018-05-11T06:16:34.188Z,101809.94
2018-05-11T06:17:38.458Z,101807.22
2018-05-11T06:18:42.618Z,101810.63
2018-05-11T06:19:46.930Z,101806.38
2018-05-11T06:20:51.097Z,101808.01
2018-05-11T06:21:55.331Z,101809.30
2018-05-11T06:22:59.468Z,101811.39
2018-05-11T06:24:03.659Z,101802.72
2018-05-11T06:25:07.857Z,101801.39
2018-05-11T06:26:12.792Z,101803.18
2018-05-11T06:27:17.735Z,101805.61
2018-05-11T06:28:22.033Z,101808.51
2018-05-11T06:29:26.987Z,101808.59
2018-05-11T06:30:31.172Z,101809.39
2018-05-11T06:31:35.353Z,101810.60
2018-05-11T06:32:39.533Z,101811.08
2018-05-11T06:33:43.757Z,101808.66
2018-05-11T06:34:47.951Z,101810.41
2018-05-11T06:35:52.131Z,101814.78
2018-05-11T06:36:56.304Z,101813.53
2018-05-11T06:38:00.484Z,101811.73
2018-05-11T06:39:08.019Z,101803.52
2018-05-11T06:40:12.205Z,101806.09
2018-05-11T06:41:16.374Z,101801.89
2018-05-11T06:42:20.545Z,101800.95
2018-05-11T06:43:25.485Z,101807.34
2018-05-11T06:44:30.685Z,101810.41
2018-05-11T06:45:34.863Z,101801.78
2018-05-11T06:46:39.041Z,101797.31
2018-05-11T06:47:43.986Z,101803.67
2018-05-11T06:48:48.165Z,101799.77
2018-05-11T06:49:53.312Z,101801.48
2018-05-11T06:50:58.249Z,101803.97
2018-05-11T06:52:02.442Z,101806.02
2018-05-11T06:53:07.393Z,101801.30
2018-05-11T06:54:11.599Z,101802.09
2018-05-11T06:55:16.201Z,101798.30
2018-05-11T06:56:21.147Z,101797.36
2018-05-11T06:57:25.312Z,101802.82
2018-05-11T06:58:29.486Z,101803.39
2018-05-11T06:59:33.677Z,101800.44
2018-05-11T07:00:37.923Z,101803.57
2018-05-11T07:01:42.292Z,101796.77
2018-05-11T07:02:46.664Z,101799.16
2018-05-11T07:03:51.798Z,101804.40
2018-05-11T07:04:56.794Z,101800.09
2018-05-11T07:06:01.014Z,101801.41
2018-05-11T07:07:05.219Z,101803.63
2018-05-11T07:08:09.396Z,101799.41
2018-05-11T07:09:14.338Z,101800.10
2018-05-11T07:10:18.656Z,101797.55
2018-05-11T07:11:22.953Z,101799.52
2018-05-11T07:12:27.903Z,101799.02
2018-05-11T07:13:32.073Z,101801.16
2018-05-11T07:14:37.016Z,101798.56
2018-05-11T07:15:41.951Z,101798.27
2018-05-11T07:16:46.153Z,101793.48
2018-05-11T07:17:51.116Z,101798.56
2018-05-11T07:18:55.315Z,101795.87
2018-05-11T07:19:59.490Z,101795.81
2018-05-11T07:21:03.668Z,101789.34
2018-05-11T07:22:07.863Z,101788.34
2018-05-11T07:23:12.058Z,101788.66
2018-05-11T07:24:16.262Z,101786.44
2018-05-11T07:25:20.433Z,101786.77
2018-05-11T07:26:24.620Z,101787.94
2018-05-11T07:27:28.802Z,101790.87
2018-05-11T07:28:33.132Z,101791.22
2018-05-11T07:29:37.300Z,101794.98
2018-05-11T07:30:42.234Z,101785.49
2018-05-11T07:31:46.406Z,101786.45
2018-05-11T07:32:50.639Z,101782.19
2018-05-11T07:33:55.600Z,101779.68
2018-05-11T07:34:59.818Z,101780.52
2018-05-11T07:36:04.005Z,101782.56
2018-05-11T07:37:08.172Z,101780.66
2018-05-11T07:38:12.358Z,101779.31
2018-05-11T07:39:16.555Z,101776.31
2018-05-11T07:40:20.746Z,101775.42
2018-05-11T07:41:24.943Z,101779.30
2018-05-11T07:42:29.892Z,101779.64
2018-05-11T07:43:34.184Z,101775.89
2018-05-11T07:44:39.117Z,101780.47
2018-05-11T07:45:44.053Z,101773.08
2018-05-11T07:46:48.229Z,101776.55
2018-05-11T07:47:52.397Z,101770.05
2018-05-11T07:48:56.703Z,101772.81
2018-05-11T07:50:00.882Z,101771.80
2018-05-11T07:51:05.088Z,101773.45
2018-05-11T07:52:10.040Z,101771.26
2018-05-11T07:53:14.215Z,101771.69
2018-05-11T07:54:18.417Z,101774.80
2018-05-11T07:55:22.593Z,101773.17
2018-05-11T07:56:27.178Z,101776.61
2018-05-11T07:57:32.119Z,101772.66
2018-05-11T07:58:36.301Z,101773.86
2018-05-11T07:59:41.248Z,101772.21
2018-05-11T08:00:45.442Z,101776.84
2018-05-11T08:01:50.409Z,101773.39
2018-05-11T08:02:54.580Z,101777.22
2018-05-11T08:03:59.518Z,101780.09
2018-05-11T08:05:03.872Z,101777.13
2018-05-11T08:06:08.094Z,101782.27
2018-05-11T08:07:12.264Z,101778.55
2018-05-11T08:08:16.445Z,101779.44
2018-05-11T08:09:20.679Z,101781.06
2018-05-11T08:10:24.844Z,101779.30
2018-05-11T08:11:29.040Z,101778.97
2018-05-11T08:12:33.248Z,101779.77
2018-05-11T08:13:37.417Z,101768.43
2018-05-11T08:14:41.587Z,101773.39
2018-05-11T08:15:45.761Z,101774.12
2018-05-11T08:16:50.007Z,101768.97
2018-05-11T08:17:54.184Z,101768.42
2018-05-11T08:18:58.349Z,101768.83
2018-05-11T08:20:03.311Z,101766.91
2018-05-11T08:21:07.497Z,101764.63
2018-05-11T08:22:12.457Z,101767.33
2018-05-11T08:23:16.749Z,101770.27
2018-05-11T08:24:20.917Z,101762.81
2018-05-11T08:25:25.099Z,101768.77
2018-05-11T08:26:29.264Z,101764.63
2018-05-11T08:27:34.196Z,101767.39
2018-05-11T08:28:39.166Z,101762.69
2018-05-11T08:29:43.341Z,101766.27
2018-05-11T08:30:48.281Z,101767.97
2018-05-11T08:31:52.466Z,101764.31
2018-05-11T08:32:57.400Z,101761.09
2018-05-11T08:34:02.377Z,101758.56
2018-05-11T08:35:06.588Z,101766.02
2018-05-11T08:36:10.793Z,101764.97
2018-05-11T08:37:14.972Z,101767.23
2018-05-11T08:38:19.149Z,101768.91
2018-05-11T08:39:23.370Z,101764.41
2018-05-11T08:40:28.453Z,101769.96
2018-05-11T08:41:32.637Z,101765.80
2018-05-11T08:42:36.808Z,101760.47
2018-05-11T08:43:40.984Z,101762.98
2018-05-11T08:44:45.197Z,101762.39
2018-05-11T08:45:49.411Z,101762.14
2018-05-11T08:46:53.593Z,101752.02
2018-05-11T08:47:57.794Z,101759.93
2018-05-11T08:49:01.974Z,101757.78
2018-05-11T08:50:06.182Z,101756.67
2018-05-11T08:51:10.405Z,101756.22
2018-05-11T08:52:15.345Z,101755.50
2018-05-11T08:53:20.294Z,101760.27
2018-05-11T08:54:24.478Z,101758.06
2018-05-11T08:55:29.418Z,101759.67
2018-05-11T08:56:33.621Z,101752.66
2018-05-11T08:57:38.557Z,101757.59
2018-05-11T08:58:42.905Z,101757.53
2018-05-11T08:59:47.078Z,101757.69
2018-05-11T09:00:51.257Z,101757.23
2018-05-11T09:01:55.438Z,101753.41
2018-05-11T09:02:59.706Z,101748.64
2018-05-11T09:04:03.849Z,101752.66
2018-05-11T09:05:08.025Z,101748.45
2018-05-11T09:06:12.974Z,101744.73
2018-05-11T09:07:17.161Z,101744.69
2018-05-11T09:08:22.156Z,101749.10
2018-05-11T09:09:26.362Z,101743.23
2018-05-11T09:10:30.548Z,101745.34
2018-05-11T09:11:34.725Z,101744.15
2018-05-11T09:12:38.906Z,101747.16
2018-05-11T09:13:43.130Z,101749.40
2018-05-11T09:14:48.125Z,101747.55
2018-05-11T09:15:52.305Z,101747.77
2018-05-11T09:16:56.476Z,101742.17
2018-05-11T09:18:01.427Z,101741.14
2018-05-11T09:19:05.605Z,101743.45
2018-05-11T09:20:09.904Z,101738.78
2018-05-11T09:21:14.099Z,101747.06
2018-05-11T09:22:18.275Z,101747.88
2018-05-11T09:23:22.451Z,101747.98
2018-05-11T09:24:26.632Z,101747.45
2018-05-11T09:25:30.833Z,101747.94
2018-05-11T09:26:35.001Z,101747.51
2018-05-11T09:27:39.968Z,101753.86
2018-05-11T09:28:44.143Z,101748.48
2018-05-11T09:29:49.079Z,101749.28
2018-05-11T09:30:53.273Z,101750.23
2018-05-11T09:31:58.237Z,101748.23
2018-05-11T09:33:02.418Z,101747.50
2018-05-11T09:34:07.357Z,101749.30
2018-05-11T09:35:11.588Z,101747.06
2018-05-11T09:36:15.791Z,101748.52
2018-05-11T09:37:19.966Z,101746.69
2018-05-11T09:38:24.934Z,101750.70
2018-05-11T09:39:29.125Z,101744.84
2018-05-11T09:40:33.312Z,101748.77
2018-05-11T09:41:38.256Z,101746.83
2018-05-11T09:42:43.243Z,101749.21
2018-05-11T09:43:47.464Z,101742.14
2018-05-11T09:44:51.637Z,101743.09
2018-05-11T09:45:55.812Z,101737.88
2018-05-11T09:47:00.753Z,101739.77
2018-05-11T09:48:04.958Z,101740.47
2018-05-11T09:49:09.921Z,101739.20
2018-05-11T09:50:14.153Z,101738.23
2018-05-11T09:51:18.342Z,101740.45
2018-05-11T09:52:22.521Z,101741.45
2018-05-11T09:53:26.685Z,101738.27
2018-05-11T09:54:30.861Z,101733.84
2018-05-11T09:55:35.062Z,101738.34
2018-05-11T09:56:39.237Z,101730.47
2018-05-11T09:57:44.211Z,101740.11
2018-05-11T09:58:48.389Z,101738.53
2018-05-11T09:59:52.569Z,101734.23
2018-05-11T10:00:56.828Z,101736.73
2018-05-11T10:02:01.025Z,101728.27
2018-05-11T10:03:05.330Z,101736.19
2018-05-11T10:04:10.273Z,101737.45
2018-05-11T10:05:14.556Z,101733.21
2018-05-11T10:06:18.733Z,101733.12
2018-05-11T10:07:23.058Z,101729.41
2018-05-11T10:08:27.237Z,101732.28
2018-05-11T10:09:31.737Z,101733.58
2018-05-11T10:10:35.914Z,101727.08
2018-05-11T10:11:40.080Z,101727.61
2018-05-11T10:12:44.315Z,101724.30
2018-05-11T10:13:48.506Z,101722.71
2018-05-11T10:14:52.701Z,101723.48
2018-05-11T10:15:56.884Z,101728.27
2018-05-11T10:17:01.828Z,101734.13
2018-05-11T10:18:06.028Z,101724.49
2018-05-11T10:19:10.204Z,101724.59
2018-05-11T10:20:14.457Z,101722.61
2018-05-11T10:21:18.640Z,101726.34
2018-05-11T10:22:23.622Z,101724.80
2018-05-11T10:23:27.827Z,101719.94
2018-05-11T10:24:32.097Z,101723.11
2018-05-11T10:25:37.039Z,101721.70
2018-05-11T10:26:41.973Z,101721.47
2018-05-11T10:27:46.145Z,101719.04
2018-05-11T10:28:50.385Z,101716.67
2018-05-11T10:29:54.602Z,101716.41
2018-05-11T10:30:58.786Z,101715.14
2018-05-11T10:32:03.757Z,101723.80
2018-05-11T10:33:07.928Z,101715.02
2018-05-11T10:34:12.878Z,101716.70
2018-05-11T10:35:17.105Z,101714.78
2018-05-11T10:36:21.304Z,101715.64
2018-05-11T10:37:25.482Z,101713.91
2018-05-11T10:38:38.171Z,101710.22
2018-05-11T10:39:42.341Z,101706.44
2018-05-11T10:40:46.549Z,101700.98
2018-05-11T10:41:50.791Z,101704.84
2018-05-11T10:42:54.966Z,101701.49
2018-05-11T10:43:59.171Z,101705.55
2018-05-11T10:45:03.361Z,101701.23
2018-05-11T10:46:08.305Z,101703.66
2018-05-11T10:47:12.496Z,101703.09
2018-05-11T10:48:17.442Z,101708.84
2018-05-11T10:49:21.615Z,101706.97
2018-05-11T10:50:25.789Z,101708.05
2018-05-11T10:51:29.962Z,101707.34
2018-05-11T10:52:34.930Z,101698.13
2018-05-11T10:53:39.128Z,101703.88
2018-05-11T10:54:43.305Z,101702.39
2018-05-11T10:55:48.261Z,101701.33
2018-05-11T10:56:52.528Z,101704.61
2018-05-11T10:57:57.487Z,101700.17
2018-05-11T10:59:01.681Z,101702.42
2018-05-11T11:00:06.621Z,101704.81
2018-05-11T11:01:11.566Z,101700.23
2018-05-11T11:02:15.822Z,101693.22
2018-05-11T11:03:20.004Z,101691.31
2018-05-11T11:04:24.181Z,101685.80
2018-05-11T11:05:28.349Z,101688.80
2018-05-11T11:06:32.540Z,101687.37
2018-05-11T11:07:36.758Z,101683.91
2018-05-11T11:08:40.938Z,101684.17
2018-05-11T11:09:45.115Z,101688.48
2018-05-11T11:10:50.061Z,101688.34
2018-05-11T11:11:55.052Z,101684.54
2018-05-11T11:12:59.384Z,101687.95
2018-05-11T11:14:04.342Z,101696.62
2018-05-11T11:15:08.516Z,101689.88
2018-05-11T11:16:12.681Z,101692.59
2018-05-11T11:17:17.256Z,101686.76
2018-05-11T11:18:22.208Z,101681.53
2018-05-11T11:19:26.378Z,101678.05
2018-05-11T11:20:30.550Z,101683.16
2018-05-11T11:21:34.720Z,101682.34
2018-05-11T11:22:39.724Z,101688.81
2018-05-11T11:23:43.909Z,101687.35
2018-05-11T11:24:48.081Z,101684.41
2018-05-11T11:25:52.284Z,101682.98
2018-05-11T11:26:56.479Z,101673.47
2018-05-11T11:28:00.673Z,101674.43
2018-05-11T11:29:04.868Z,101674.22
2018-05-11T11:30:09.039Z,101674.52
2018-05-11T11:31:13.220Z,101680.30
2018-05-11T11:32:18.273Z,101674.49
2018-05-11T11:33:22.470Z,101681.31
2018-05-11T11:34:27.528Z,101675.49
2018-05-11T11:35:31.673Z,101675.33
2018-05-11T11:36:35.867Z,101669.94
2018-05-11T11:37:40.037Z,101671.08
2018-05-11T11:38:44.382Z,101663.45
2018-05-11T11:39:48.549Z,101661.23
2018-05-11T11:40:53.522Z,101669.36
2018-05-11T11:41:57.689Z,101661.26
2018-05-11T11:43:02.693Z,101662.52
2018-05-11T11:44:06.873Z,101660.63
2018-05-11T11:45:11.041Z,101662.64
2018-05-11T11:46:15.987Z,101662.66
2018-05-11T11:47:20.242Z,101660.48
2018-05-11T11:48:24.457Z,101663.36
2018-05-11T11:49:28.630Z,101659.64
2018-05-11T11:50:32.806Z,101651.41
2018-05-11T11:51:37.754Z,101654.84
2018-05-11T11:52:41.921Z,101659.67
2018-05-11T11:53:46.115Z,101657.58
2018-05-11T11:54:50.313Z,101657.36
2018-05-11T11:55:54.505Z,101653.30
2018-05-11T11:56:58.709Z,101653.73
2018-05-11T11:58:02.892Z,101649.62
2018-05-11T11:59:07.837Z,101648.38
2018-05-11T12:00:12.793Z,101644.81
2018-05-11T12:01:17.473Z,101646.09
2018-05-11T12:02:22.458Z,101644.05
2018-05-11T12:03:26.621Z,101645.91
2018-05-11T12:04:31.557Z,101646.17
2018-05-11T12:05:35.741Z,101647.09
2018-05-11T12:06:39.952Z,101641.02
2018-05-11T12:07:44.121Z,101636.91
2018-05-11T12:08:48.285Z,101637.42
2018-05-11T12:09:53.226Z,101635.05
2018-05-11T12:10:57.434Z,101638.91
2018-05-11T12:12:01.638Z,101635.23
2018-05-11T12:13:06.732Z,101636.14
2018-05-11T12:14:10.909Z,101629.63
2018-05-11T12:15:15.081Z,101632.24
2018-05-11T12:16:20.026Z,101631.40